ECGOT LEMG-UGTB
Flight info
| Callsign | ECGOT |
|---|---|
| Flight time | 4h 42m |
| Altitude | 40000 |
| Route | RIXUR N851 ISTER UN851 LUNOR DCT PELOS DCT GISPA DCT ASPIR DCT KATTI/N0451F390 DCT MOJ DCT NISVA Q13 UDROS UM859 KARDE UN644 ROLIN N644 LAGAS |
| Aircraft | A310/H-SDFGHIM1RTUWXY/LB1 |
Departure
| Time | 2026-04-21 10:16 |
|---|---|
| Airport | Málaga-Costa del Sol Airport (LEMG) |
Arrival
| Time | 2026-04-21 14:59 |
|---|---|
| Airport | Tbilisi International Airport (UGTB) |
| Time | Latitude | Longitude | Altitude | Speed | Heading |
|---|---|---|---|---|---|
| 2026-04-21 09:49 | 36.67767 | -4.48698 | 48 ft | 0 kts | 207° |
| 2026-04-21 10:04 | 36.67774 | -4.48693 | 48 ft | 4 kts | 208° |
| 2026-04-21 10:04 | 36.67798 | -4.48677 | 48 ft | 4 kts | 211° |
| 2026-04-21 10:05 | 36.67821 | -4.48659 | 48 ft | 4 kts | 217° |
| 2026-04-21 10:05 | 36.67830 | -4.48650 | 48 ft | 4 kts | 224° |
| 2026-04-21 10:05 | 36.67843 | -4.48632 | 46 ft | 4 kts | 246° |
| 2026-04-21 10:05 | 36.67845 | -4.48612 | 48 ft | 0 kts | 297° |
| 2026-04-21 10:09 | 36.67846 | -4.48613 | 48 ft | 0 kts | 297° |
| 2026-04-21 10:11 | 36.67852 | -4.48627 | 47 ft | 7 kts | 297° |
| 2026-04-21 10:11 | 36.67898 | -4.48735 | 48 ft | 18 kts | 298° |
| 2026-04-21 10:11 | 36.67955 | -4.48871 | 48 ft | 18 kts | 297° |
| 2026-04-21 10:11 | 36.68014 | -4.49012 | 45 ft | 19 kts | 297° |
| 2026-04-21 10:12 | 36.68071 | -4.49155 | 48 ft | 17 kts | 292° |
| 2026-04-21 10:12 | 36.68118 | -4.49259 | 48 ft | 13 kts | 294° |
| 2026-04-21 10:12 | 36.68157 | -4.49355 | 44 ft | 13 kts | 297° |
| 2026-04-21 10:12 | 36.68154 | -4.49456 | 48 ft | 12 kts | 231° |
| 2026-04-21 10:13 | 36.68090 | -4.49532 | 45 ft | 13 kts | 223° |
| 2026-04-21 10:13 | 36.68009 | -4.49621 | 48 ft | 21 kts | 221° |
| 2026-04-21 10:13 | 36.67871 | -4.49771 | 46 ft | 29 kts | 221° |
| 2026-04-21 10:13 | 36.67757 | -4.49866 | 48 ft | 16 kts | 198° |
| 2026-04-21 10:14 | 36.67742 | -4.49962 | 47 ft | 14 kts | 311° |
| 2026-04-21 10:14 | 36.67820 | -4.50074 | 50 ft | 21 kts | 311° |
| 2026-04-21 10:14 | 36.67921 | -4.50219 | 51 ft | 22 kts | 310° |
| 2026-04-21 10:14 | 36.68022 | -4.50363 | 50 ft | 23 kts | 312° |
| 2026-04-21 10:15 | 36.68077 | -4.50493 | 49 ft | 13 kts | 232° |
| 2026-04-21 10:15 | 36.67997 | -4.50483 | 58 ft | 14 kts | 162° |
| 2026-04-21 10:15 | 36.67864 | -4.50411 | 54 ft | 28 kts | 146° |
| 2026-04-21 10:15 | 36.67660 | -4.50147 | 57 ft | 65 kts | 132° |
| 2026-04-21 10:16 | 36.67211 | -4.49518 | 53 ft | 128 kts | 132° |
| 2026-04-21 10:16 | 36.66526 | -4.48541 | 216 ft | 164 kts | 130° |
| 2026-04-21 10:16 | 36.65773 | -4.47415 | 753 ft | 171 kts | 129° |
| 2026-04-21 10:16 | 36.64928 | -4.46347 | 1477 ft | 173 kts | 132° |
| 2026-04-21 10:17 | 36.64081 | -4.45277 | 2083 ft | 180 kts | 130° |
| 2026-04-21 10:17 | 36.63193 | -4.44115 | 2584 ft | 191 kts | 130° |
| 2026-04-21 10:17 | 36.62270 | -4.42839 | 3185 ft | 206 kts | 129° |
| 2026-04-21 10:17 | 36.61305 | -4.41466 | 3947 ft | 215 kts | 130° |
| 2026-04-21 10:18 | 36.60337 | -4.40009 | 4841 ft | 222 kts | 125° |
| 2026-04-21 10:18 | 36.59830 | -4.38180 | 5788 ft | 228 kts | 104° |
| 2026-04-21 10:18 | 36.59549 | -4.36188 | 6584 ft | 238 kts | 102° |
| 2026-04-21 10:18 | 36.59267 | -4.34127 | 7425 ft | 245 kts | 98° |
| 2026-04-21 10:19 | 36.59605 | -4.32022 | 8309 ft | 256 kts | 60° |
| 2026-04-21 10:19 | 36.60735 | -4.30281 | 9306 ft | 263 kts | 46° |
| 2026-04-21 10:19 | 36.62028 | -4.28612 | 10109 ft | 274 kts | 45° |
| 2026-04-21 10:19 | 36.63405 | -4.26853 | 10652 ft | 296 kts | 45° |
| 2026-04-21 10:20 | 36.64894 | -4.24909 | 11068 ft | 322 kts | 46° |
| 2026-04-21 10:20 | 36.66463 | -4.22850 | 11634 ft | 342 kts | 46° |
| 2026-04-21 10:20 | 36.68138 | -4.20653 | 12337 ft | 358 kts | 46° |
| 2026-04-21 10:20 | 36.69884 | -4.18362 | 13128 ft | 370 kts | 46° |
| 2026-04-21 10:21 | 36.71687 | -4.16010 | 13939 ft | 381 kts | 46° |
| 2026-04-21 10:21 | 36.73545 | -4.13583 | 14680 ft | 393 kts | 47° |
| 2026-04-21 10:21 | 36.75444 | -4.11051 | 15285 ft | 407 kts | 47° |
| 2026-04-21 10:21 | 36.77422 | -4.08444 | 15902 ft | 419 kts | 47° |
| 2026-04-21 10:22 | 36.79438 | -4.05757 | 16643 ft | 427 kts | 47° |
| 2026-04-21 10:22 | 36.81495 | -4.03043 | 17435 ft | 434 kts | 47° |
| 2026-04-21 10:22 | 36.83573 | -4.00268 | 18244 ft | 439 kts | 47° |
| 2026-04-21 10:22 | 36.85655 | -3.97514 | 18882 ft | 444 kts | 47° |
| 2026-04-21 10:23 | 36.87775 | -3.94681 | 19549 ft | 449 kts | 47° |
| 2026-04-21 10:23 | 36.89928 | -3.91826 | 20187 ft | 453 kts | 47° |
| 2026-04-21 10:23 | 36.92101 | -3.88934 | 20759 ft | 459 kts | 47° |
| 2026-04-21 10:23 | 36.94291 | -3.86004 | 21408 ft | 463 kts | 47° |
| 2026-04-21 10:24 | 36.96503 | -3.83051 | 22038 ft | 467 kts | 47° |
| 2026-04-21 10:24 | 36.98727 | -3.80058 | 22697 ft | 471 kts | 47° |
| 2026-04-21 10:24 | 37.00983 | -3.77057 | 23310 ft | 476 kts | 46° |
| 2026-04-21 10:24 | 37.03248 | -3.74008 | 23859 ft | 480 kts | 47° |
| 2026-04-21 10:25 | 37.05544 | -3.70939 | 24347 ft | 484 kts | 46° |
| 2026-04-21 10:25 | 37.07847 | -3.67849 | 24849 ft | 488 kts | 47° |
| 2026-04-21 10:25 | 37.10166 | -3.64724 | 25340 ft | 492 kts | 46° |
| 2026-04-21 10:25 | 37.12292 | -3.61423 | 25792 ft | 495 kts | 59° |
| 2026-04-21 10:26 | 37.13837 | -3.57556 | 26284 ft | 497 kts | 68° |
| 2026-04-21 10:26 | 37.15184 | -3.53554 | 26797 ft | 500 kts | 68° |
| 2026-04-21 10:26 | 37.16599 | -3.49552 | 27297 ft | 503 kts | 66° |
| 2026-04-21 10:26 | 37.18113 | -3.45592 | 27862 ft | 504 kts | 65° |
| 2026-04-21 10:27 | 37.19680 | -3.41662 | 28493 ft | 503 kts | 64° |
| 2026-04-21 10:27 | 37.21227 | -3.37720 | 29106 ft | 503 kts | 64° |
| 2026-04-21 10:27 | 37.22770 | -3.33779 | 29760 ft | 502 kts | 64° |
| 2026-04-21 10:27 | 37.24330 | -3.29850 | 30325 ft | 502 kts | 64° |
| 2026-04-21 10:28 | 37.25868 | -3.25910 | 30859 ft | 501 kts | 64° |
| 2026-04-21 10:28 | 37.27393 | -3.21974 | 31368 ft | 502 kts | 64° |
| 2026-04-21 10:28 | 37.28933 | -3.18046 | 31866 ft | 502 kts | 64° |
| 2026-04-21 10:28 | 37.30466 | -3.14170 | 32372 ft | 502 kts | 64° |
| 2026-04-21 10:29 | 37.32000 | -3.10235 | 32901 ft | 501 kts | 64° |
| 2026-04-21 10:29 | 37.33526 | -3.06301 | 33416 ft | 502 kts | 64° |
| 2026-04-21 10:29 | 37.35072 | -3.02372 | 33909 ft | 501 kts | 64° |
| 2026-04-21 10:29 | 37.36612 | -2.98445 | 34324 ft | 501 kts | 64° |
| 2026-04-21 10:30 | 37.38142 | -2.94509 | 34722 ft | 501 kts | 65° |
| 2026-04-21 10:30 | 37.39641 | -2.90546 | 35094 ft | 502 kts | 65° |
| 2026-04-21 10:30 | 37.41189 | -2.86613 | 35502 ft | 503 kts | 64° |
| 2026-04-21 10:30 | 37.42728 | -2.82655 | 35877 ft | 503 kts | 64° |
| 2026-04-21 10:31 | 37.44261 | -2.78689 | 36220 ft | 504 kts | 64° |
| 2026-04-21 10:31 | 37.45791 | -2.74717 | 36683 ft | 503 kts | 64° |
| 2026-04-21 10:31 | 37.47314 | -2.70759 | 37098 ft | 502 kts | 65° |
| 2026-04-21 10:31 | 37.48838 | -2.66793 | 37471 ft | 503 kts | 64° |
| 2026-04-21 10:32 | 37.50359 | -2.62821 | 37808 ft | 504 kts | 64° |
| 2026-04-21 10:32 | 37.51861 | -2.58882 | 38164 ft | 505 kts | 65° |
| 2026-04-21 10:32 | 37.53380 | -2.54895 | 38514 ft | 506 kts | 64° |
| 2026-04-21 10:32 | 37.54923 | -2.50899 | 38812 ft | 506 kts | 64° |
| 2026-04-21 10:33 | 37.56451 | -2.46901 | 39063 ft | 507 kts | 64° |
| 2026-04-21 10:33 | 37.57977 | -2.42891 | 39331 ft | 507 kts | 65° |
| 2026-04-21 10:33 | 37.59515 | -2.38878 | 39592 ft | 508 kts | 64° |
| 2026-04-21 10:33 | 37.61046 | -2.34861 | 39789 ft | 510 kts | 65° |
| 2026-04-21 10:34 | 37.62584 | -2.30804 | 39893 ft | 512 kts | 64° |
| 2026-04-21 10:34 | 37.65621 | -2.22777 | 39929 ft | 508 kts | 65° |
| 2026-04-21 10:35 | 37.68685 | -2.14713 | 39928 ft | 511 kts | 65° |
| 2026-04-21 10:35 | 37.71746 | -2.06596 | 39950 ft | 511 kts | 64° |
| 2026-04-21 10:36 | 37.74297 | -1.99873 | 39940 ft | 510 kts | 65° |
| 2026-04-21 10:36 | 37.77339 | -1.91792 | 39939 ft | 508 kts | 64° |
| 2026-04-21 10:37 | 37.80365 | -1.83705 | 39949 ft | 508 kts | 64° |
| 2026-04-21 10:37 | 37.83391 | -1.75639 | 39933 ft | 507 kts | 65° |
| 2026-04-21 10:38 | 37.86411 | -1.67565 | 39947 ft | 507 kts | 65° |
| 2026-04-21 10:38 | 37.89426 | -1.59489 | 39948 ft | 507 kts | 65° |
| 2026-04-21 10:39 | 37.92389 | -1.51431 | 39920 ft | 508 kts | 65° |
| 2026-04-21 10:39 | 37.95366 | -1.43323 | 39932 ft | 507 kts | 64° |
| 2026-04-21 10:40 | 37.98362 | -1.35242 | 39941 ft | 505 kts | 65° |
| 2026-04-21 10:40 | 38.01344 | -1.27168 | 39929 ft | 505 kts | 65° |
| 2026-04-21 10:41 | 38.04311 | -1.19093 | 39924 ft | 505 kts | 65° |
| 2026-04-21 10:41 | 38.07252 | -1.11059 | 39937 ft | 505 kts | 65° |
| 2026-04-21 10:42 | 38.10211 | -1.02974 | 39946 ft | 505 kts | 64° |
| 2026-04-21 10:42 | 38.13163 | -0.94877 | 39929 ft | 505 kts | 64° |
| 2026-04-21 10:43 | 38.16110 | -0.86767 | 39939 ft | 505 kts | 64° |
| 2026-04-21 10:43 | 38.19046 | -0.78654 | 39973 ft | 505 kts | 64° |
| 2026-04-21 10:44 | 38.21958 | -0.70586 | 39958 ft | 503 kts | 65° |
| 2026-04-21 10:44 | 38.24881 | -0.62516 | 39964 ft | 502 kts | 64° |
| 2026-04-21 10:45 | 38.27730 | -0.54391 | 39963 ft | 502 kts | 67° |
| 2026-04-21 10:45 | 38.30318 | -0.46123 | 39963 ft | 502 kts | 68° |
| 2026-04-21 10:46 | 38.32928 | -0.37873 | 39957 ft | 502 kts | 67° |
| 2026-04-21 10:46 | 38.35535 | -0.29675 | 39956 ft | 503 kts | 67° |
| 2026-04-21 10:47 | 38.38222 | -0.21455 | 39954 ft | 502 kts | 66° |
| 2026-04-21 10:47 | 38.40972 | -0.13247 | 39950 ft | 502 kts | 66° |
| 2026-04-21 10:48 | 38.43694 | -0.05035 | 39950 ft | 502 kts | 66° |
| 2026-04-21 10:48 | 38.46403 | 0.03179 | 39953 ft | 502 kts | 67° |
| 2026-04-21 10:49 | 38.49028 | 0.11386 | 39956 ft | 502 kts | 66° |
| 2026-04-21 10:49 | 38.51676 | 0.19656 | 39954 ft | 503 kts | 67° |
| 2026-04-21 10:50 | 38.54324 | 0.27936 | 39957 ft | 503 kts | 67° |
| 2026-04-21 10:50 | 38.56974 | 0.36213 | 39957 ft | 503 kts | 67° |
| 2026-04-21 10:51 | 38.59605 | 0.44492 | 39953 ft | 503 kts | 67° |
| 2026-04-21 10:51 | 38.62203 | 0.52790 | 39949 ft | 502 kts | 67° |
| 2026-04-21 10:52 | 38.64829 | 0.61072 | 39950 ft | 502 kts | 67° |
| 2026-04-21 10:52 | 38.67430 | 0.69361 | 39956 ft | 501 kts | 67° |
| 2026-04-21 10:53 | 38.70011 | 0.77580 | 39943 ft | 500 kts | 67° |
| 2026-04-21 10:53 | 38.72597 | 0.85855 | 39949 ft | 500 kts | 66° |
| 2026-04-21 10:54 | 38.75171 | 0.94125 | 39948 ft | 499 kts | 67° |
| 2026-04-21 10:54 | 38.77748 | 1.02406 | 39948 ft | 499 kts | 67° |
| 2026-04-21 10:55 | 38.80324 | 1.10670 | 39946 ft | 499 kts | 67° |
| 2026-04-21 10:55 | 38.82886 | 1.18962 | 39937 ft | 499 kts | 67° |
| 2026-04-21 10:56 | 38.85424 | 1.27193 | 39940 ft | 499 kts | 67° |
| 2026-04-21 10:56 | 38.87974 | 1.35475 | 39939 ft | 499 kts | 67° |
| 2026-04-21 10:57 | 38.90523 | 1.43765 | 39944 ft | 499 kts | 67° |
| 2026-04-21 10:57 | 38.93003 | 1.52097 | 39942 ft | 498 kts | 68° |
| 2026-04-21 10:58 | 38.95471 | 1.60422 | 39947 ft | 498 kts | 68° |
| 2026-04-21 10:58 | 38.97912 | 1.68741 | 39946 ft | 498 kts | 68° |
| 2026-04-21 10:59 | 39.00339 | 1.77016 | 39952 ft | 497 kts | 68° |
| 2026-04-21 10:59 | 39.02784 | 1.85354 | 39956 ft | 497 kts | 68° |
| 2026-04-21 11:00 | 39.05221 | 1.93680 | 39955 ft | 497 kts | 68° |
| 2026-04-21 11:00 | 39.07645 | 2.02023 | 39959 ft | 497 kts | 68° |
| 2026-04-21 11:01 | 39.10056 | 2.10363 | 39962 ft | 497 kts | 68° |
| 2026-04-21 11:01 | 39.12459 | 2.18663 | 39955 ft | 497 kts | 68° |
| 2026-04-21 11:02 | 39.16065 | 2.31166 | 39953 ft | 496 kts | 68° |
| 2026-04-21 11:02 | 39.18448 | 2.39504 | 39954 ft | 496 kts | 68° |
| 2026-04-21 11:03 | 39.20833 | 2.47837 | 39954 ft | 496 kts | 69° |
| 2026-04-21 11:03 | 39.23213 | 2.56190 | 39955 ft | 496 kts | 69° |
| 2026-04-21 11:04 | 39.25591 | 2.64544 | 39954 ft | 496 kts | 69° |
| 2026-04-21 11:04 | 39.27939 | 2.72913 | 39952 ft | 495 kts | 69° |
| 2026-04-21 11:05 | 39.30259 | 2.81226 | 39955 ft | 495 kts | 69° |
| 2026-04-21 11:05 | 39.32601 | 2.89573 | 39958 ft | 494 kts | 69° |
| 2026-04-21 11:06 | 39.34954 | 2.97921 | 39966 ft | 494 kts | 69° |
| 2026-04-21 11:06 | 39.37281 | 3.06271 | 39973 ft | 494 kts | 69° |
| 2026-04-21 11:07 | 39.39601 | 3.14621 | 39967 ft | 493 kts | 69° |
| 2026-04-21 11:07 | 39.41926 | 3.22966 | 39961 ft | 493 kts | 69° |
| 2026-04-21 11:08 | 39.44752 | 3.31000 | 39972 ft | 490 kts | 56° |
| 2026-04-21 11:08 | 39.48411 | 3.38373 | 39968 ft | 489 kts | 56° |
| 2026-04-21 11:09 | 39.51973 | 3.45902 | 39964 ft | 490 kts | 58° |
| 2026-04-21 11:09 | 39.55441 | 3.53525 | 39967 ft | 490 kts | 57° |
| 2026-04-21 11:10 | 39.58924 | 3.61123 | 39966 ft | 491 kts | 58° |
| 2026-04-21 11:10 | 39.62404 | 3.68731 | 39966 ft | 490 kts | 58° |
| 2026-04-21 11:11 | 39.65872 | 3.76354 | 39964 ft | 490 kts | 57° |
| 2026-04-21 11:11 | 39.69311 | 3.83934 | 39974 ft | 490 kts | 57° |
| 2026-04-21 11:12 | 39.72766 | 3.91567 | 39967 ft | 490 kts | 57° |
| 2026-04-21 11:12 | 39.76210 | 3.99200 | 39973 ft | 490 kts | 57° |
| 2026-04-21 11:13 | 39.79651 | 4.06838 | 39969 ft | 489 kts | 57° |
| 2026-04-21 11:13 | 39.83082 | 4.14472 | 39966 ft | 489 kts | 57° |
| 2026-04-21 11:14 | 39.86510 | 4.22126 | 39965 ft | 489 kts | 58° |
| 2026-04-21 11:14 | 39.89884 | 4.29758 | 39966 ft | 488 kts | 58° |
| 2026-04-21 11:15 | 39.93328 | 4.37390 | 39965 ft | 488 kts | 58° |
| 2026-04-21 11:15 | 39.96743 | 4.45035 | 39977 ft | 488 kts | 57° |
| 2026-04-21 11:16 | 40.00150 | 4.52706 | 39972 ft | 488 kts | 58° |
| 2026-04-21 11:16 | 40.03539 | 4.60321 | 39974 ft | 488 kts | 58° |
| 2026-04-21 11:17 | 40.06943 | 4.67990 | 39970 ft | 488 kts | 58° |
| 2026-04-21 11:17 | 40.10328 | 4.75678 | 39969 ft | 488 kts | 57° |
| 2026-04-21 11:18 | 40.13729 | 4.83347 | 39972 ft | 488 kts | 58° |
| 2026-04-21 11:18 | 40.17127 | 4.91031 | 39982 ft | 487 kts | 58° |
| 2026-04-21 11:19 | 40.20509 | 4.98719 | 39968 ft | 488 kts | 57° |
| 2026-04-21 11:19 | 40.23882 | 5.06418 | 39974 ft | 488 kts | 57° |
| 2026-04-21 11:20 | 40.27248 | 5.14077 | 39976 ft | 488 kts | 58° |
| 2026-04-21 11:20 | 40.30619 | 5.21804 | 39972 ft | 488 kts | 57° |
| 2026-04-21 11:21 | 40.33976 | 5.29523 | 39966 ft | 488 kts | 58° |
| 2026-04-21 11:21 | 40.37344 | 5.37256 | 39979 ft | 488 kts | 58° |
| 2026-04-21 11:22 | 40.40279 | 5.45310 | 39984 ft | 492 kts | 68° |
| 2026-04-21 11:22 | 40.42575 | 5.53794 | 39980 ft | 492 kts | 68° |
| 2026-04-21 11:23 | 40.44980 | 5.62147 | 39969 ft | 492 kts | 66° |
| 2026-04-21 11:23 | 40.47449 | 5.70545 | 39973 ft | 492 kts | 66° |
| 2026-04-21 11:24 | 40.49502 | 5.77533 | 39975 ft | 493 kts | 66° |
| 2026-04-21 11:24 | 40.51953 | 5.85949 | 39972 ft | 493 kts | 66° |
| 2026-04-21 11:25 | 40.54406 | 5.94366 | 39979 ft | 493 kts | 66° |
| 2026-04-21 11:25 | 40.56845 | 6.02799 | 39974 ft | 493 kts | 67° |
| 2026-04-21 11:26 | 40.59274 | 6.11233 | 39973 ft | 493 kts | 66° |
| 2026-04-21 11:26 | 40.61713 | 6.19693 | 39973 ft | 494 kts | 66° |
| 2026-04-21 11:27 | 40.64130 | 6.28091 | 39970 ft | 494 kts | 66° |
| 2026-04-21 11:27 | 40.66568 | 6.36561 | 39972 ft | 494 kts | 66° |
| 2026-04-21 11:28 | 40.68996 | 6.45036 | 39966 ft | 494 kts | 67° |
| 2026-04-21 11:28 | 40.71410 | 6.53518 | 39972 ft | 495 kts | 66° |
| 2026-04-21 11:29 | 40.73812 | 6.62016 | 39983 ft | 495 kts | 67° |
| 2026-04-21 11:29 | 40.76217 | 6.70538 | 39975 ft | 495 kts | 66° |
| 2026-04-21 11:30 | 40.78622 | 6.79069 | 39979 ft | 495 kts | 67° |
| 2026-04-21 11:30 | 40.81002 | 6.87541 | 39975 ft | 496 kts | 67° |
| 2026-04-21 11:31 | 40.83391 | 6.96094 | 39980 ft | 496 kts | 67° |
| 2026-04-21 11:31 | 40.85777 | 7.04673 | 39972 ft | 496 kts | 67° |
| 2026-04-21 11:32 | 40.88165 | 7.13251 | 39973 ft | 497 kts | 67° |
| 2026-04-21 11:32 | 40.90554 | 7.21817 | 39973 ft | 496 kts | 67° |
| 2026-04-21 11:33 | 40.92916 | 7.30353 | 39974 ft | 497 kts | 67° |
| 2026-04-21 11:33 | 40.95285 | 7.38946 | 39975 ft | 497 kts | 67° |
| 2026-04-21 11:34 | 40.97652 | 7.47541 | 39969 ft | 498 kts | 67° |
| 2026-04-21 11:34 | 40.99998 | 7.56168 | 39967 ft | 498 kts | 67° |
| 2026-04-21 11:35 | 41.02344 | 7.64794 | 39975 ft | 498 kts | 67° |
| 2026-04-21 11:35 | 41.04667 | 7.73376 | 39971 ft | 498 kts | 67° |
| 2026-04-21 11:36 | 41.07004 | 7.82006 | 39968 ft | 498 kts | 67° |
| 2026-04-21 11:36 | 41.09334 | 7.90659 | 39972 ft | 499 kts | 67° |
| 2026-04-21 11:37 | 41.11651 | 7.99325 | 39979 ft | 498 kts | 67° |
| 2026-04-21 11:37 | 41.13962 | 8.08001 | 39970 ft | 499 kts | 67° |
| 2026-04-21 11:38 | 41.16265 | 8.16684 | 39963 ft | 500 kts | 69° |
| 2026-04-21 11:38 | 41.18131 | 8.25591 | 39962 ft | 501 kts | 72° |
| 2026-04-21 11:39 | 41.19980 | 8.34510 | 39972 ft | 501 kts | 71° |
| 2026-04-21 11:39 | 41.21919 | 8.43417 | 39961 ft | 501 kts | 71° |
| 2026-04-21 11:40 | 41.23823 | 8.52269 | 39954 ft | 501 kts | 71° |
| 2026-04-21 11:40 | 41.25732 | 8.61182 | 39962 ft | 501 kts | 70° |
| 2026-04-21 11:41 | 41.27638 | 8.70114 | 39958 ft | 501 kts | 70° |
| 2026-04-21 11:41 | 41.29525 | 8.79049 | 39961 ft | 502 kts | 70° |
| 2026-04-21 11:42 | 41.31419 | 8.88003 | 39948 ft | 503 kts | 71° |
| 2026-04-21 11:42 | 41.33310 | 8.96979 | 39947 ft | 503 kts | 71° |
| 2026-04-21 11:43 | 41.35197 | 9.05959 | 39939 ft | 504 kts | 71° |
| 2026-04-21 11:43 | 41.37065 | 9.14899 | 39938 ft | 504 kts | 71° |
| 2026-04-21 11:44 | 41.38946 | 9.23899 | 39937 ft | 505 kts | 71° |
| 2026-04-21 11:44 | 41.40805 | 9.32915 | 39939 ft | 505 kts | 70° |
| 2026-04-21 11:45 | 41.42660 | 9.41943 | 39932 ft | 505 kts | 71° |
| 2026-04-21 11:45 | 41.44519 | 9.50987 | 39932 ft | 506 kts | 71° |
| 2026-04-21 11:46 | 41.46378 | 9.60037 | 39936 ft | 505 kts | 71° |
| 2026-04-21 11:46 | 41.48195 | 9.69017 | 39934 ft | 504 kts | 71° |
| 2026-04-21 11:47 | 41.50035 | 9.78048 | 39938 ft | 504 kts | 71° |
| 2026-04-21 11:47 | 41.51857 | 9.87080 | 39945 ft | 504 kts | 71° |
| 2026-04-21 11:48 | 41.53676 | 9.96119 | 39945 ft | 504 kts | 71° |
| 2026-04-21 11:48 | 41.55493 | 10.05164 | 39958 ft | 504 kts | 71° |
| 2026-04-21 11:49 | 41.57306 | 10.14215 | 39945 ft | 504 kts | 71° |
| 2026-04-21 11:49 | 41.59107 | 10.23213 | 39943 ft | 505 kts | 71° |
| 2026-04-21 11:50 | 41.60917 | 10.32283 | 39945 ft | 505 kts | 71° |
| 2026-04-21 11:50 | 41.62697 | 10.41383 | 39944 ft | 505 kts | 71° |
| 2026-04-21 11:51 | 41.64460 | 10.50419 | 39944 ft | 505 kts | 72° |
| 2026-04-21 11:51 | 41.66231 | 10.59507 | 39950 ft | 505 kts | 72° |
| 2026-04-21 11:52 | 41.68000 | 10.68603 | 39944 ft | 505 kts | 72° |
| 2026-04-21 11:52 | 41.69756 | 10.77716 | 39956 ft | 506 kts | 72° |
| 2026-04-21 11:53 | 41.71493 | 10.86829 | 39954 ft | 505 kts | 72° |
| 2026-04-21 11:53 | 41.73234 | 10.95940 | 39944 ft | 505 kts | 72° |
| 2026-04-21 11:54 | 41.74975 | 11.05073 | 39947 ft | 506 kts | 72° |
| 2026-04-21 11:54 | 41.76710 | 11.14208 | 39938 ft | 506 kts | 72° |
| 2026-04-21 11:55 | 41.78416 | 11.23287 | 39950 ft | 505 kts | 72° |
| 2026-04-21 11:55 | 41.80124 | 11.32431 | 39953 ft | 505 kts | 72° |
| 2026-04-21 11:56 | 41.81665 | 11.41640 | 39950 ft | 507 kts | 75° |
| 2026-04-21 11:56 | 41.83178 | 11.50879 | 39965 ft | 506 kts | 74° |
| 2026-04-21 11:57 | 41.84753 | 11.60082 | 39955 ft | 505 kts | 74° |
| 2026-04-21 11:57 | 41.86315 | 11.69219 | 39955 ft | 505 kts | 73° |
| 2026-04-21 11:58 | 41.87856 | 11.78417 | 39979 ft | 505 kts | 74° |
| 2026-04-21 11:58 | 41.89395 | 11.87628 | 40001 ft | 505 kts | 74° |
| 2026-04-21 11:59 | 41.90925 | 11.96833 | 40029 ft | 505 kts | 74° |
| 2026-04-21 11:59 | 41.92455 | 12.06038 | 40068 ft | 505 kts | 75° |
| 2026-04-21 12:00 | 41.93976 | 12.15269 | 40045 ft | 505 kts | 74° |
| 2026-04-21 12:00 | 41.95476 | 12.24488 | 39939 ft | 506 kts | 74° |
| 2026-04-21 12:01 | 41.96969 | 12.33668 | 39946 ft | 506 kts | 75° |
| 2026-04-21 12:01 | 41.98470 | 12.42904 | 39943 ft | 505 kts | 75° |
| 2026-04-21 12:02 | 42.00702 | 12.56752 | 39941 ft | 505 kts | 75° |
| 2026-04-21 12:03 | 42.02172 | 12.65986 | 39970 ft | 505 kts | 75° |
| 2026-04-21 12:03 | 42.03641 | 12.75233 | 39964 ft | 505 kts | 75° |
| 2026-04-21 12:04 | 42.05102 | 12.84407 | 39965 ft | 505 kts | 75° |
| 2026-04-21 12:04 | 42.06576 | 12.93642 | 39964 ft | 504 kts | 75° |
| 2026-04-21 12:05 | 42.08051 | 13.02886 | 39951 ft | 505 kts | 75° |
| 2026-04-21 12:05 | 42.09481 | 13.12140 | 39947 ft | 505 kts | 75° |
| 2026-04-21 12:06 | 42.10908 | 13.21402 | 39945 ft | 505 kts | 75° |
| 2026-04-21 12:06 | 42.12323 | 13.30629 | 39928 ft | 506 kts | 75° |
| 2026-04-21 12:07 | 42.13739 | 13.39908 | 39929 ft | 506 kts | 75° |
| 2026-04-21 12:07 | 42.15159 | 13.49207 | 39927 ft | 507 kts | 76° |
| 2026-04-21 12:08 | 42.16566 | 13.58512 | 39928 ft | 506 kts | 76° |
| 2026-04-21 12:08 | 42.17965 | 13.67822 | 39924 ft | 506 kts | 76° |
| 2026-04-21 12:09 | 42.19312 | 13.77129 | 39946 ft | 506 kts | 77° |
| 2026-04-21 12:09 | 42.20627 | 13.86479 | 39944 ft | 507 kts | 76° |
| 2026-04-21 12:10 | 42.21989 | 13.95766 | 39938 ft | 508 kts | 76° |
| 2026-04-21 12:10 | 42.23134 | 14.03608 | 39938 ft | 509 kts | 76° |
| 2026-04-21 12:11 | 42.24731 | 14.14514 | 39938 ft | 509 kts | 76° |
| 2026-04-21 12:11 | 42.25877 | 14.22371 | 39949 ft | 509 kts | 76° |
| 2026-04-21 12:12 | 42.27219 | 14.31699 | 39943 ft | 509 kts | 76° |
| 2026-04-21 12:12 | 42.28565 | 14.41110 | 39944 ft | 510 kts | 76° |
| 2026-04-21 12:13 | 42.29905 | 14.50521 | 39948 ft | 510 kts | 76° |
| 2026-04-21 12:13 | 42.31256 | 14.59943 | 39951 ft | 510 kts | 76° |
| 2026-04-21 12:14 | 42.32603 | 14.69337 | 39949 ft | 509 kts | 77° |
| 2026-04-21 12:14 | 42.33899 | 14.78672 | 39952 ft | 508 kts | 76° |
| 2026-04-21 12:15 | 42.35195 | 14.88062 | 39955 ft | 508 kts | 76° |
| 2026-04-21 12:15 | 42.36498 | 14.97481 | 39952 ft | 509 kts | 77° |
| 2026-04-21 12:16 | 42.37795 | 15.06889 | 39954 ft | 509 kts | 77° |
| 2026-04-21 12:16 | 42.39066 | 15.16260 | 39948 ft | 509 kts | 76° |
| 2026-04-21 12:17 | 42.40335 | 15.25691 | 39955 ft | 509 kts | 77° |
| 2026-04-21 12:17 | 42.41617 | 15.35130 | 39956 ft | 510 kts | 77° |
| 2026-04-21 12:18 | 42.42871 | 15.44574 | 39954 ft | 509 kts | 77° |
| 2026-04-21 12:18 | 42.44114 | 15.53967 | 39951 ft | 510 kts | 77° |
| 2026-04-21 12:19 | 42.45360 | 15.63426 | 39955 ft | 510 kts | 77° |
| 2026-04-21 12:19 | 42.46599 | 15.72895 | 39961 ft | 510 kts | 77° |
| 2026-04-21 12:20 | 42.47834 | 15.82367 | 39960 ft | 511 kts | 77° |
| 2026-04-21 12:20 | 42.49063 | 15.91860 | 39960 ft | 511 kts | 78° |
| 2026-04-21 12:21 | 42.50284 | 16.01367 | 39976 ft | 511 kts | 77° |
| 2026-04-21 12:21 | 42.51500 | 16.10866 | 39965 ft | 512 kts | 77° |
| 2026-04-21 12:22 | 42.52777 | 16.20280 | 39949 ft | 511 kts | 77° |
| 2026-04-21 12:22 | 42.54102 | 16.29756 | 39962 ft | 512 kts | 76° |
| 2026-04-21 12:23 | 42.55428 | 16.39232 | 39960 ft | 511 kts | 77° |
| 2026-04-21 12:23 | 42.56728 | 16.48733 | 39958 ft | 511 kts | 77° |
| 2026-04-21 12:24 | 42.58025 | 16.58224 | 39958 ft | 512 kts | 77° |
| 2026-04-21 12:24 | 42.59310 | 16.67729 | 39952 ft | 512 kts | 77° |
| 2026-04-21 12:25 | 42.60576 | 16.77166 | 39960 ft | 511 kts | 77° |
| 2026-04-21 12:25 | 42.61844 | 16.86674 | 39951 ft | 512 kts | 77° |
| 2026-04-21 12:26 | 42.63102 | 16.96202 | 39950 ft | 512 kts | 77° |
| 2026-04-21 12:26 | 42.64350 | 17.05730 | 39967 ft | 512 kts | 78° |
| 2026-04-21 12:27 | 42.65604 | 17.15254 | 39947 ft | 512 kts | 77° |
| 2026-04-21 12:27 | 42.66828 | 17.24779 | 39945 ft | 512 kts | 78° |
| 2026-04-21 12:28 | 42.68059 | 17.34320 | 39943 ft | 512 kts | 78° |
| 2026-04-21 12:28 | 42.69276 | 17.43816 | 39960 ft | 513 kts | 78° |
| 2026-04-21 12:29 | 42.70494 | 17.53370 | 39946 ft | 513 kts | 78° |
| 2026-04-21 12:29 | 42.71709 | 17.62927 | 39946 ft | 512 kts | 78° |
| 2026-04-21 12:30 | 42.72928 | 17.72478 | 39943 ft | 513 kts | 78° |
| 2026-04-21 12:30 | 42.74144 | 17.82040 | 39941 ft | 513 kts | 78° |
| 2026-04-21 12:31 | 42.75312 | 17.91549 | 39944 ft | 513 kts | 78° |
| 2026-04-21 12:31 | 42.76494 | 18.01122 | 39949 ft | 513 kts | 78° |
| 2026-04-21 12:32 | 42.77668 | 18.10717 | 39982 ft | 513 kts | 78° |
| 2026-04-21 12:32 | 42.78826 | 18.20314 | 39963 ft | 514 kts | 78° |
| 2026-04-21 12:33 | 42.79979 | 18.29922 | 39950 ft | 514 kts | 78° |
| 2026-04-21 12:33 | 42.81121 | 18.39519 | 39950 ft | 513 kts | 78° |
| 2026-04-21 12:34 | 42.82252 | 18.49074 | 39937 ft | 514 kts | 78° |
| 2026-04-21 12:34 | 42.83374 | 18.58694 | 39933 ft | 514 kts | 79° |
| 2026-04-21 12:35 | 42.84503 | 18.68331 | 39921 ft | 515 kts | 79° |
| 2026-04-21 12:35 | 42.85621 | 18.77977 | 39952 ft | 515 kts | 78° |
| 2026-04-21 12:36 | 42.86726 | 18.87638 | 39937 ft | 515 kts | 79° |
| 2026-04-21 12:36 | 42.87820 | 18.97232 | 39930 ft | 515 kts | 79° |
| 2026-04-21 12:37 | 42.88909 | 19.06900 | 39932 ft | 516 kts | 79° |
| 2026-04-21 12:37 | 42.89991 | 19.16569 | 39946 ft | 516 kts | 78° |
| 2026-04-21 12:38 | 42.91064 | 19.26259 | 39955 ft | 517 kts | 79° |
| 2026-04-21 12:38 | 42.92149 | 19.35962 | 39953 ft | 517 kts | 79° |
| 2026-04-21 12:39 | 42.93214 | 19.45662 | 39969 ft | 517 kts | 79° |
| 2026-04-21 12:39 | 42.94273 | 19.55325 | 39982 ft | 518 kts | 79° |
| 2026-04-21 12:40 | 42.94783 | 19.65138 | 39990 ft | 520 kts | 89° |
| 2026-04-21 12:40 | 42.94795 | 19.75014 | 39992 ft | 520 kts | 88° |
| 2026-04-21 12:41 | 42.94990 | 19.84886 | 39965 ft | 520 kts | 86° |
| 2026-04-21 12:41 | 42.95195 | 19.94743 | 40003 ft | 520 kts | 86° |
| 2026-04-21 12:42 | 42.95393 | 20.04609 | 40010 ft | 519 kts | 87° |
| 2026-04-21 12:42 | 42.95576 | 20.14464 | 40015 ft | 519 kts | 87° |
| 2026-04-21 12:43 | 42.95750 | 20.24258 | 40029 ft | 519 kts | 87° |
| 2026-04-21 12:43 | 42.95911 | 20.34101 | 40023 ft | 518 kts | 86° |
| 2026-04-21 12:44 | 42.96063 | 20.43963 | 40024 ft | 518 kts | 87° |
| 2026-04-21 12:44 | 42.96225 | 20.53800 | 40021 ft | 518 kts | 87° |
| 2026-04-21 12:45 | 42.96367 | 20.63575 | 40028 ft | 518 kts | 87° |
| 2026-04-21 12:45 | 42.96503 | 20.73396 | 40027 ft | 517 kts | 87° |
| 2026-04-21 12:46 | 42.96636 | 20.83226 | 40037 ft | 517 kts | 87° |
| 2026-04-21 12:46 | 42.96784 | 20.93045 | 40036 ft | 517 kts | 87° |
| 2026-04-21 12:47 | 42.96880 | 21.02864 | 40037 ft | 517 kts | 88° |
| 2026-04-21 12:47 | 42.96990 | 21.12695 | 40032 ft | 517 kts | 88° |
| 2026-04-21 12:48 | 42.97083 | 21.22456 | 40034 ft | 517 kts | 88° |
| 2026-04-21 12:48 | 42.97154 | 21.32281 | 40065 ft | 517 kts | 88° |
| 2026-04-21 12:49 | 42.97223 | 21.42109 | 40056 ft | 517 kts | 88° |
| 2026-04-21 12:49 | 42.97283 | 21.51945 | 40044 ft | 518 kts | 88° |
| 2026-04-21 12:50 | 42.97345 | 21.61779 | 40046 ft | 518 kts | 88° |
| 2026-04-21 12:50 | 42.97400 | 21.71565 | 40026 ft | 518 kts | 88° |
| 2026-04-21 12:51 | 42.97425 | 21.81397 | 40028 ft | 517 kts | 88° |
| 2026-04-21 12:51 | 42.97461 | 21.91227 | 40039 ft | 518 kts | 88° |
| 2026-04-21 12:52 | 42.97487 | 22.01076 | 40044 ft | 518 kts | 89° |
| 2026-04-21 12:52 | 42.97510 | 22.10906 | 40039 ft | 517 kts | 88° |
| 2026-04-21 12:53 | 42.97538 | 22.20739 | 40037 ft | 517 kts | 88° |
| 2026-04-21 12:53 | 42.97561 | 22.30579 | 40046 ft | 518 kts | 89° |
| 2026-04-21 12:54 | 42.97544 | 22.40352 | 40031 ft | 518 kts | 89° |
| 2026-04-21 12:54 | 42.97520 | 22.50202 | 40024 ft | 518 kts | 89° |
| 2026-04-21 12:55 | 42.97490 | 22.60047 | 40032 ft | 518 kts | 89° |
| 2026-04-21 12:55 | 42.97455 | 22.69885 | 40027 ft | 518 kts | 89° |
| 2026-04-21 12:56 | 42.97414 | 22.79734 | 40022 ft | 518 kts | 90° |
| 2026-04-21 12:56 | 42.97306 | 22.89580 | 40023 ft | 518 kts | 89° |
| 2026-04-21 12:57 | 42.97342 | 22.99422 | 40021 ft | 518 kts | 88° |
| 2026-04-21 12:57 | 42.97389 | 23.09220 | 40029 ft | 519 kts | 88° |
| 2026-04-21 12:58 | 42.97419 | 23.19074 | 40058 ft | 519 kts | 89° |
| 2026-04-21 12:58 | 42.97447 | 23.28947 | 40034 ft | 519 kts | 89° |
| 2026-04-21 12:59 | 42.97475 | 23.38815 | 40022 ft | 519 kts | 89° |
| 2026-04-21 12:59 | 42.97496 | 23.48618 | 40013 ft | 520 kts | 89° |
| 2026-04-21 13:00 | 42.97491 | 23.58486 | 40016 ft | 520 kts | 89° |
| 2026-04-21 13:00 | 42.97484 | 23.66769 | 40016 ft | 520 kts | 89° |
| 2026-04-21 13:01 | 42.97467 | 23.76650 | 40013 ft | 520 kts | 89° |
| 2026-04-21 13:01 | 42.97438 | 23.86476 | 40018 ft | 520 kts | 89° |
| 2026-04-21 13:02 | 42.97401 | 23.96364 | 40015 ft | 520 kts | 89° |
| 2026-04-21 13:02 | 42.97318 | 24.11208 | 40029 ft | 521 kts | 89° |
| 2026-04-21 13:03 | 42.97267 | 24.21105 | 40020 ft | 521 kts | 90° |
| 2026-04-21 13:03 | 42.97200 | 24.31006 | 40019 ft | 521 kts | 89° |
| 2026-04-21 13:04 | 42.97122 | 24.40901 | 40013 ft | 521 kts | 90° |
| 2026-04-21 13:04 | 42.97031 | 24.50721 | 40013 ft | 520 kts | 89° |
| 2026-04-21 13:05 | 42.96947 | 24.60617 | 40005 ft | 521 kts | 90° |
| 2026-04-21 13:05 | 42.96845 | 24.70529 | 40003 ft | 521 kts | 90° |
| 2026-04-21 13:06 | 42.96738 | 24.80428 | 40003 ft | 521 kts | 90° |
| 2026-04-21 13:06 | 42.96627 | 24.90285 | 40000 ft | 521 kts | 90° |
| 2026-04-21 13:07 | 42.96514 | 25.00198 | 40007 ft | 521 kts | 90° |
| 2026-04-21 13:07 | 42.96404 | 25.10098 | 39998 ft | 521 kts | 90° |
| 2026-04-21 13:08 | 42.96258 | 25.19919 | 39997 ft | 521 kts | 90° |
| 2026-04-21 13:08 | 42.96105 | 25.29808 | 39993 ft | 521 kts | 90° |
| 2026-04-21 13:09 | 42.95948 | 25.39690 | 39996 ft | 521 kts | 90° |
| 2026-04-21 13:09 | 42.95784 | 25.49589 | 39996 ft | 521 kts | 90° |
| 2026-04-21 13:10 | 42.95599 | 25.59499 | 39989 ft | 521 kts | 90° |
| 2026-04-21 13:10 | 42.95407 | 25.69384 | 39997 ft | 521 kts | 90° |
| 2026-04-21 13:11 | 42.95210 | 25.79271 | 39987 ft | 521 kts | 91° |
| 2026-04-21 13:11 | 42.95009 | 25.89165 | 40000 ft | 521 kts | 91° |
| 2026-04-21 13:12 | 42.94805 | 25.99045 | 39994 ft | 521 kts | 91° |
| 2026-04-21 13:12 | 42.94581 | 26.08876 | 39985 ft | 520 kts | 91° |
| 2026-04-21 13:13 | 42.94344 | 26.18758 | 39985 ft | 521 kts | 91° |
| 2026-04-21 13:13 | 42.94110 | 26.28647 | 39981 ft | 521 kts | 91° |
| 2026-04-21 13:14 | 42.93876 | 26.38523 | 39975 ft | 521 kts | 91° |
| 2026-04-21 13:14 | 42.93632 | 26.48395 | 39970 ft | 521 kts | 91° |
| 2026-04-21 13:15 | 42.93394 | 26.58208 | 39958 ft | 520 kts | 91° |
| 2026-04-21 13:15 | 42.93135 | 26.68075 | 39967 ft | 520 kts | 91° |
| 2026-04-21 13:16 | 42.92865 | 26.77944 | 39969 ft | 520 kts | 92° |
| 2026-04-21 13:16 | 42.92575 | 26.87804 | 39957 ft | 519 kts | 91° |
| 2026-04-21 13:17 | 42.92276 | 26.97648 | 39966 ft | 518 kts | 91° |
| 2026-04-21 13:17 | 42.91971 | 27.07405 | 39964 ft | 518 kts | 91° |
| 2026-04-21 13:18 | 42.91660 | 27.17240 | 39964 ft | 518 kts | 92° |
| 2026-04-21 13:18 | 42.91347 | 27.27074 | 39961 ft | 519 kts | 92° |
| 2026-04-21 13:19 | 42.91017 | 27.36913 | 39970 ft | 519 kts | 92° |
| 2026-04-21 13:19 | 42.90677 | 27.46745 | 39974 ft | 519 kts | 92° |
| 2026-04-21 13:20 | 42.90339 | 27.56573 | 39972 ft | 518 kts | 92° |
| 2026-04-21 13:20 | 42.90003 | 27.66337 | 39995 ft | 518 kts | 92° |
| 2026-04-21 13:21 | 42.89662 | 27.76162 | 39987 ft | 518 kts | 92° |
| 2026-04-21 13:21 | 42.89293 | 27.85977 | 39990 ft | 518 kts | 92° |
| 2026-04-21 13:22 | 42.88914 | 27.95786 | 39989 ft | 517 kts | 92° |
| 2026-04-21 13:22 | 42.88466 | 28.05583 | 39990 ft | 518 kts | 95° |
| 2026-04-21 13:23 | 42.87811 | 28.15303 | 39992 ft | 517 kts | 94° |
| 2026-04-21 13:23 | 42.87322 | 28.25102 | 39993 ft | 517 kts | 93° |
| 2026-04-21 13:24 | 42.86889 | 28.34908 | 39997 ft | 518 kts | 93° |
| 2026-04-21 13:24 | 42.86445 | 28.44642 | 39997 ft | 518 kts | 93° |
| 2026-04-21 13:25 | 42.85990 | 28.54429 | 40017 ft | 518 kts | 93° |
| 2026-04-21 13:25 | 42.85492 | 28.64242 | 40010 ft | 519 kts | 93° |
| 2026-04-21 13:26 | 42.84994 | 28.74064 | 40002 ft | 519 kts | 94° |
| 2026-04-21 13:26 | 42.84491 | 28.83870 | 39997 ft | 519 kts | 94° |
| 2026-04-21 13:27 | 42.83984 | 28.93695 | 40000 ft | 520 kts | 94° |
| 2026-04-21 13:27 | 42.83463 | 29.03521 | 40002 ft | 520 kts | 94° |
| 2026-04-21 13:28 | 42.82932 | 29.13279 | 40002 ft | 519 kts | 94° |
| 2026-04-21 13:28 | 42.82386 | 29.23099 | 40001 ft | 520 kts | 94° |
| 2026-04-21 13:29 | 42.81840 | 29.32927 | 39997 ft | 520 kts | 94° |
| 2026-04-21 13:29 | 42.81292 | 29.42751 | 39997 ft | 520 kts | 94° |
| 2026-04-21 13:30 | 42.80726 | 29.52559 | 39995 ft | 519 kts | 94° |
| 2026-04-21 13:30 | 42.80142 | 29.62383 | 39999 ft | 520 kts | 94° |
| 2026-04-21 13:31 | 42.79575 | 29.72196 | 39997 ft | 520 kts | 94° |
| 2026-04-21 13:31 | 42.78976 | 29.81962 | 39995 ft | 520 kts | 94° |
| 2026-04-21 13:32 | 42.78393 | 29.91770 | 39995 ft | 520 kts | 94° |
| 2026-04-21 13:32 | 42.77783 | 30.01592 | 39998 ft | 520 kts | 94° |
| 2026-04-21 13:33 | 42.77157 | 30.11407 | 39992 ft | 520 kts | 94° |
| 2026-04-21 13:33 | 42.76538 | 30.21207 | 39994 ft | 520 kts | 94° |
| 2026-04-21 13:34 | 42.75922 | 30.31013 | 39990 ft | 520 kts | 94° |
| 2026-04-21 13:34 | 42.75294 | 30.40816 | 39981 ft | 520 kts | 94° |
| 2026-04-21 13:35 | 42.74668 | 30.50544 | 39985 ft | 519 kts | 94° |
| 2026-04-21 13:35 | 42.74020 | 30.60326 | 39996 ft | 519 kts | 96° |
| 2026-04-21 13:36 | 42.72963 | 30.70038 | 39995 ft | 519 kts | 98° |
| 2026-04-21 13:36 | 42.71906 | 30.79747 | 39997 ft | 518 kts | 97° |
| 2026-04-21 13:37 | 42.70919 | 30.89447 | 39993 ft | 517 kts | 97° |
| 2026-04-21 13:37 | 42.69942 | 30.99076 | 39997 ft | 517 kts | 97° |
| 2026-04-21 13:38 | 42.68955 | 31.08760 | 39994 ft | 517 kts | 97° |
| 2026-04-21 13:38 | 42.67938 | 31.18437 | 39989 ft | 517 kts | 97° |
| 2026-04-21 13:39 | 42.66918 | 31.28095 | 39992 ft | 516 kts | 98° |
| 2026-04-21 13:39 | 42.65899 | 31.37749 | 40003 ft | 516 kts | 98° |
| 2026-04-21 13:40 | 42.64856 | 31.47396 | 39984 ft | 516 kts | 98° |
| 2026-04-21 13:40 | 42.63815 | 31.57022 | 39985 ft | 514 kts | 98° |
| 2026-04-21 13:41 | 42.62776 | 31.66623 | 39988 ft | 514 kts | 98° |
| 2026-04-21 13:41 | 42.61707 | 31.76220 | 39985 ft | 514 kts | 98° |
| 2026-04-21 13:42 | 42.60653 | 31.85814 | 39974 ft | 513 kts | 98° |
| 2026-04-21 13:42 | 42.59603 | 31.95341 | 39986 ft | 512 kts | 98° |
| 2026-04-21 13:43 | 42.58524 | 32.04891 | 39983 ft | 511 kts | 99° |
| 2026-04-21 13:43 | 42.57418 | 32.14434 | 39978 ft | 512 kts | 98° |
| 2026-04-21 13:44 | 42.56342 | 32.23988 | 39975 ft | 511 kts | 99° |
| 2026-04-21 13:44 | 42.55243 | 32.33517 | 39982 ft | 511 kts | 99° |
| 2026-04-21 13:45 | 42.54144 | 32.42966 | 39986 ft | 510 kts | 99° |
| 2026-04-21 13:45 | 42.53023 | 32.52480 | 39980 ft | 509 kts | 99° |
| 2026-04-21 13:46 | 42.51922 | 32.61974 | 39976 ft | 509 kts | 99° |
| 2026-04-21 13:46 | 42.50805 | 32.71454 | 39967 ft | 508 kts | 99° |
| 2026-04-21 13:47 | 42.49701 | 32.80860 | 39966 ft | 508 kts | 99° |
| 2026-04-21 13:47 | 42.48582 | 32.90317 | 39966 ft | 508 kts | 99° |
| 2026-04-21 13:48 | 42.47433 | 32.99755 | 39964 ft | 508 kts | 100° |
| 2026-04-21 13:48 | 42.46486 | 33.07614 | 39962 ft | 508 kts | 100° |
| 2026-04-21 13:49 | 42.45298 | 33.17038 | 39965 ft | 508 kts | 100° |
| 2026-04-21 13:49 | 42.44083 | 33.26465 | 39968 ft | 508 kts | 100° |
| 2026-04-21 13:50 | 42.42926 | 33.35908 | 39963 ft | 508 kts | 100° |
| 2026-04-21 13:50 | 42.41727 | 33.45269 | 39971 ft | 508 kts | 101° |
| 2026-04-21 13:51 | 42.40547 | 33.54708 | 39966 ft | 508 kts | 100° |
| 2026-04-21 13:51 | 42.39343 | 33.64131 | 39951 ft | 508 kts | 101° |
| 2026-04-21 13:52 | 42.38135 | 33.73553 | 39954 ft | 508 kts | 101° |
| 2026-04-21 13:52 | 42.36919 | 33.82971 | 39955 ft | 508 kts | 101° |
| 2026-04-21 13:53 | 42.35715 | 33.92349 | 39953 ft | 508 kts | 101° |
| 2026-04-21 13:53 | 42.34503 | 34.01785 | 39952 ft | 509 kts | 101° |
| 2026-04-21 13:54 | 42.33267 | 34.11205 | 39951 ft | 508 kts | 101° |
| 2026-04-21 13:54 | 42.32029 | 34.20612 | 39952 ft | 508 kts | 101° |
| 2026-04-21 13:55 | 42.30785 | 34.30016 | 39949 ft | 508 kts | 101° |
| 2026-04-21 13:55 | 42.29538 | 34.39345 | 39946 ft | 507 kts | 101° |
| 2026-04-21 13:56 | 42.28250 | 34.48722 | 39955 ft | 507 kts | 102° |
| 2026-04-21 13:56 | 42.26975 | 34.58103 | 39953 ft | 507 kts | 101° |
| 2026-04-21 13:57 | 42.25689 | 34.67458 | 39950 ft | 507 kts | 102° |
| 2026-04-21 13:57 | 42.24410 | 34.76820 | 39943 ft | 507 kts | 102° |
| 2026-04-21 13:58 | 42.23110 | 34.86162 | 39946 ft | 507 kts | 102° |
| 2026-04-21 13:58 | 42.21804 | 34.95502 | 39949 ft | 506 kts | 102° |
| 2026-04-21 13:59 | 42.20511 | 35.04783 | 39946 ft | 506 kts | 102° |
| 2026-04-21 13:59 | 42.19200 | 35.14115 | 39949 ft | 506 kts | 102° |
| 2026-04-21 14:00 | 42.17894 | 35.23435 | 39958 ft | 506 kts | 102° |
| 2026-04-21 14:00 | 42.16565 | 35.32754 | 39955 ft | 506 kts | 102° |
| 2026-04-21 14:01 | 42.15227 | 35.42074 | 39943 ft | 506 kts | 102° |
| 2026-04-21 14:01 | 42.13843 | 35.51361 | 39951 ft | 505 kts | 102° |
| 2026-04-21 14:02 | 42.12511 | 35.60656 | 39952 ft | 505 kts | 102° |
| 2026-04-21 14:03 | 42.10471 | 35.74539 | 39956 ft | 505 kts | 102° |
| 2026-04-21 14:03 | 42.09106 | 35.83824 | 39954 ft | 505 kts | 102° |
| 2026-04-21 14:04 | 42.07732 | 35.93110 | 39952 ft | 505 kts | 102° |
| 2026-04-21 14:04 | 42.06347 | 36.02385 | 39953 ft | 506 kts | 102° |
| 2026-04-21 14:05 | 42.04956 | 36.11660 | 39944 ft | 505 kts | 102° |
| 2026-04-21 14:05 | 42.03552 | 36.20923 | 39958 ft | 505 kts | 102° |
| 2026-04-21 14:06 | 42.02139 | 36.30185 | 39962 ft | 505 kts | 102° |
| 2026-04-21 14:06 | 42.00747 | 36.39388 | 39966 ft | 505 kts | 103° |
| 2026-04-21 14:07 | 41.99322 | 36.48649 | 39961 ft | 506 kts | 102° |
| 2026-04-21 14:07 | 41.97900 | 36.57916 | 39953 ft | 506 kts | 103° |
| 2026-04-21 14:08 | 41.96463 | 36.67166 | 39958 ft | 505 kts | 103° |
| 2026-04-21 14:08 | 41.95028 | 36.76414 | 39958 ft | 505 kts | 103° |
| 2026-04-21 14:09 | 41.93588 | 36.85668 | 39958 ft | 505 kts | 103° |
| 2026-04-21 14:09 | 41.92159 | 36.94836 | 39959 ft | 505 kts | 103° |
| 2026-04-21 14:10 | 41.90712 | 37.04079 | 39956 ft | 505 kts | 102° |
| 2026-04-21 14:10 | 41.90138 | 37.13469 | 39968 ft | 506 kts | 89° |
| 2026-04-21 14:11 | 41.90213 | 37.22942 | 39955 ft | 506 kts | 90° |
| 2026-04-21 14:11 | 41.90095 | 37.32347 | 39961 ft | 507 kts | 91° |
| 2026-04-21 14:12 | 41.89923 | 37.41830 | 39953 ft | 508 kts | 91° |
| 2026-04-21 14:12 | 41.89762 | 37.51321 | 39953 ft | 508 kts | 91° |
| 2026-04-21 14:13 | 41.89600 | 37.60814 | 39949 ft | 508 kts | 92° |
| 2026-04-21 14:13 | 41.89427 | 37.70294 | 39955 ft | 507 kts | 91° |
| 2026-04-21 14:14 | 41.89242 | 37.79753 | 39958 ft | 507 kts | 92° |
| 2026-04-21 14:14 | 41.89058 | 37.89216 | 39966 ft | 507 kts | 91° |
| 2026-04-21 14:15 | 41.88873 | 37.98613 | 39963 ft | 507 kts | 92° |
| 2026-04-21 14:15 | 41.88685 | 38.08095 | 39960 ft | 507 kts | 92° |
| 2026-04-21 14:16 | 41.88495 | 38.17575 | 39958 ft | 507 kts | 92° |
| 2026-04-21 14:16 | 41.88268 | 38.27028 | 39963 ft | 507 kts | 92° |
| 2026-04-21 14:17 | 41.88042 | 38.36422 | 39962 ft | 507 kts | 92° |
| 2026-04-21 14:17 | 41.87809 | 38.45876 | 39954 ft | 507 kts | 92° |
| 2026-04-21 14:18 | 41.87567 | 38.55343 | 39964 ft | 506 kts | 92° |
| 2026-04-21 14:18 | 41.87316 | 38.64780 | 39964 ft | 506 kts | 92° |
| 2026-04-21 14:19 | 41.87048 | 38.74158 | 39969 ft | 506 kts | 92° |
| 2026-04-21 14:19 | 41.86785 | 38.83601 | 39968 ft | 506 kts | 92° |
| 2026-04-21 14:20 | 41.86513 | 38.93039 | 39967 ft | 506 kts | 92° |
| 2026-04-21 14:20 | 41.86228 | 39.02468 | 39968 ft | 506 kts | 92° |
| 2026-04-21 14:21 | 41.85942 | 39.11849 | 39972 ft | 506 kts | 93° |
| 2026-04-21 14:21 | 41.85643 | 39.21274 | 39971 ft | 505 kts | 93° |
| 2026-04-21 14:22 | 41.85341 | 39.30701 | 39968 ft | 505 kts | 93° |
| 2026-04-21 14:22 | 41.85055 | 39.40116 | 39973 ft | 504 kts | 93° |
| 2026-04-21 14:23 | 41.84769 | 39.49528 | 39975 ft | 504 kts | 93° |
| 2026-04-21 14:23 | 41.84342 | 39.58919 | 39978 ft | 504 kts | 94° |
| 2026-04-21 14:24 | 41.83966 | 39.68254 | 39979 ft | 504 kts | 93° |
| 2026-04-21 14:24 | 41.83666 | 39.77659 | 39972 ft | 504 kts | 94° |
| 2026-04-21 14:25 | 41.83308 | 39.87044 | 39979 ft | 503 kts | 94° |
| 2026-04-21 14:25 | 41.82941 | 39.96429 | 39971 ft | 503 kts | 94° |
| 2026-04-21 14:26 | 41.82589 | 40.05752 | 39975 ft | 503 kts | 94° |
| 2026-04-21 14:26 | 41.82231 | 40.15136 | 39967 ft | 503 kts | 94° |
| 2026-04-21 14:27 | 41.81844 | 40.24515 | 39978 ft | 503 kts | 94° |
| 2026-04-21 14:27 | 41.81458 | 40.33878 | 39976 ft | 503 kts | 95° |
| 2026-04-21 14:28 | 41.81067 | 40.43243 | 39979 ft | 503 kts | 95° |
| 2026-04-21 14:28 | 41.80670 | 40.52544 | 39978 ft | 503 kts | 95° |
| 2026-04-21 14:29 | 41.80257 | 40.61930 | 39979 ft | 503 kts | 95° |
| 2026-04-21 14:29 | 41.79827 | 40.71289 | 39977 ft | 503 kts | 95° |
| 2026-04-21 14:30 | 41.79382 | 40.80669 | 39974 ft | 503 kts | 95° |
| 2026-04-21 14:30 | 41.78919 | 40.89966 | 39980 ft | 503 kts | 95° |
| 2026-04-21 14:31 | 41.78454 | 40.99327 | 39969 ft | 503 kts | 95° |
| 2026-04-21 14:31 | 41.77979 | 41.08686 | 39974 ft | 503 kts | 95° |
| 2026-04-21 14:32 | 41.77493 | 41.18057 | 39980 ft | 504 kts | 95° |
| 2026-04-21 14:32 | 41.77001 | 41.27420 | 39981 ft | 504 kts | 95° |
| 2026-04-21 14:33 | 41.76499 | 41.36779 | 39975 ft | 504 kts | 95° |
| 2026-04-21 14:33 | 41.75985 | 41.46146 | 39985 ft | 504 kts | 95° |
| 2026-04-21 14:34 | 41.75466 | 41.55445 | 39989 ft | 504 kts | 96° |
| 2026-04-21 14:34 | 41.74949 | 41.64814 | 39990 ft | 504 kts | 96° |
| 2026-04-21 14:35 | 41.74422 | 41.74172 | 39994 ft | 504 kts | 96° |
| 2026-04-21 14:35 | 41.73871 | 41.83527 | 39977 ft | 504 kts | 96° |
| 2026-04-21 14:36 | 41.73329 | 41.92882 | 39990 ft | 504 kts | 96° |
| 2026-04-21 14:36 | 41.72874 | 42.00658 | 39989 ft | 503 kts | 96° |
| 2026-04-21 14:37 | 41.72318 | 42.10006 | 39985 ft | 504 kts | 96° |
| 2026-04-21 14:37 | 41.71715 | 42.19303 | 39985 ft | 504 kts | 96° |
| 2026-04-21 14:38 | 41.71148 | 42.28674 | 39994 ft | 504 kts | 96° |
| 2026-04-21 14:38 | 41.70566 | 42.38018 | 39990 ft | 503 kts | 96° |
| 2026-04-21 14:39 | 41.69998 | 42.47362 | 39992 ft | 504 kts | 94° |
| 2026-04-21 14:39 | 41.69955 | 42.56655 | 40002 ft | 500 kts | 102° |
| 2026-04-21 14:39 | 41.68971 | 42.61079 | 39989 ft | 495 kts | 116° |
| 2026-04-21 14:40 | 41.67641 | 42.65322 | 39975 ft | 497 kts | 111° |
| 2026-04-21 14:40 | 41.66383 | 42.74437 | 39983 ft | 503 kts | 91° |
| 2026-04-21 14:40 | 41.66537 | 42.79102 | 39796 ft | 501 kts | 86° |
| 2026-04-21 14:41 | 41.66825 | 42.83757 | 39179 ft | 503 kts | 86° |
| 2026-04-21 14:41 | 41.67034 | 42.88429 | 38545 ft | 502 kts | 88° |
| 2026-04-21 14:41 | 41.67132 | 42.93037 | 37780 ft | 501 kts | 90° |
| 2026-04-21 14:41 | 41.67158 | 42.97695 | 37010 ft | 500 kts | 90° |
| 2026-04-21 14:42 | 41.67185 | 43.02345 | 36256 ft | 498 kts | 90° |
| 2026-04-21 14:42 | 41.67212 | 43.06967 | 35486 ft | 496 kts | 89° |
| 2026-04-21 14:42 | 41.67255 | 43.11562 | 34725 ft | 494 kts | 89° |
| 2026-04-21 14:42 | 41.67309 | 43.16157 | 33942 ft | 491 kts | 89° |
| 2026-04-21 14:43 | 41.67358 | 43.20719 | 32941 ft | 489 kts | 89° |
| 2026-04-21 14:43 | 41.67402 | 43.25276 | 31745 ft | 492 kts | 89° |
| 2026-04-21 14:43 | 41.67445 | 43.29811 | 30544 ft | 494 kts | 89° |
| 2026-04-21 14:43 | 41.67489 | 43.34417 | 29229 ft | 496 kts | 88° |
| 2026-04-21 14:44 | 41.67963 | 43.38983 | 27700 ft | 497 kts | 72° |
| 2026-04-21 14:44 | 41.69394 | 43.43179 | 26191 ft | 497 kts | 58° |
| 2026-04-21 14:44 | 41.71323 | 43.47026 | 24746 ft | 497 kts | 53° |
| 2026-04-21 14:44 | 41.73304 | 43.50798 | 23704 ft | 491 kts | 54° |
| 2026-04-21 14:45 | 41.75153 | 43.54565 | 23006 ft | 475 kts | 56° |
| 2026-04-21 14:45 | 41.76874 | 43.58288 | 22018 ft | 466 kts | 57° |
| 2026-04-21 14:45 | 41.78537 | 43.62002 | 20941 ft | 460 kts | 58° |
| 2026-04-21 14:45 | 41.80192 | 43.65644 | 19952 ft | 454 kts | 57° |
| 2026-04-21 14:46 | 41.81835 | 43.69224 | 18996 ft | 448 kts | 57° |
| 2026-04-21 14:46 | 41.83369 | 43.72782 | 18043 ft | 443 kts | 62° |
| 2026-04-21 14:46 | 41.84509 | 43.76599 | 17047 ft | 439 kts | 72° |
| 2026-04-21 14:46 | 41.85140 | 43.80581 | 16225 ft | 434 kts | 82° |
| 2026-04-21 14:47 | 41.85353 | 43.84591 | 15571 ft | 429 kts | 87° |
| 2026-04-21 14:47 | 41.85448 | 43.88591 | 15051 ft | 428 kts | 88° |
| 2026-04-21 14:47 | 41.85536 | 43.92575 | 14641 ft | 426 kts | 88° |
| 2026-04-21 14:47 | 41.85645 | 43.96537 | 14237 ft | 424 kts | 87° |
| 2026-04-21 14:48 | 41.85756 | 44.00486 | 13837 ft | 422 kts | 87° |
| 2026-04-21 14:48 | 41.85864 | 44.04406 | 13396 ft | 419 kts | 87° |
| 2026-04-21 14:48 | 41.85969 | 44.08309 | 12953 ft | 416 kts | 87° |
| 2026-04-21 14:48 | 41.86070 | 44.12168 | 12503 ft | 412 kts | 87° |
| 2026-04-21 14:49 | 41.86166 | 44.15934 | 12044 ft | 405 kts | 87° |
| 2026-04-21 14:49 | 41.86256 | 44.19680 | 11619 ft | 399 kts | 87° |
| 2026-04-21 14:49 | 41.86338 | 44.23383 | 11180 ft | 396 kts | 87° |
| 2026-04-21 14:49 | 41.86348 | 44.27074 | 10749 ft | 395 kts | 91° |
| 2026-04-21 14:50 | 41.86270 | 44.29551 | 10484 ft | 393 kts | 92° |
| 2026-04-21 14:50 | 41.86072 | 44.34377 | 10091 ft | 385 kts | 92° |
| 2026-04-21 14:50 | 41.85901 | 44.37884 | 9994 ft | 367 kts | 92° |
| 2026-04-21 14:50 | 41.85722 | 44.41221 | 9979 ft | 350 kts | 92° |
| 2026-04-21 14:51 | 41.85545 | 44.44468 | 9979 ft | 349 kts | 92° |
| 2026-04-21 14:51 | 41.85370 | 44.47688 | 9983 ft | 341 kts | 92° |
| 2026-04-21 14:51 | 41.85200 | 44.50778 | 9963 ft | 321 kts | 92° |
| 2026-04-21 14:51 | 41.85036 | 44.53686 | 9885 ft | 306 kts | 92° |
| 2026-04-21 14:52 | 41.84873 | 44.56504 | 9479 ft | 302 kts | 92° |
| 2026-04-21 14:52 | 41.84670 | 44.59264 | 9051 ft | 301 kts | 96° |
| 2026-04-21 14:52 | 41.84366 | 44.62021 | 8671 ft | 297 kts | 97° |
| 2026-04-21 14:52 | 41.84056 | 44.64741 | 8297 ft | 293 kts | 97° |
| 2026-04-21 14:53 | 41.83756 | 44.67401 | 8164 ft | 281 kts | 97° |
| 2026-04-21 14:53 | 41.83476 | 44.69914 | 8058 ft | 265 kts | 97° |
| 2026-04-21 14:53 | 41.83205 | 44.72338 | 7422 ft | 264 kts | 97° |
| 2026-04-21 14:53 | 41.82822 | 44.74734 | 6774 ft | 263 kts | 115° |
| 2026-04-21 14:54 | 41.81779 | 44.76682 | 6204 ft | 255 kts | 136° |
| 2026-04-21 14:54 | 41.80470 | 44.78184 | 5798 ft | 239 kts | 139° |
| 2026-04-21 14:54 | 41.79266 | 44.79673 | 5274 ft | 229 kts | 136° |
| 2026-04-21 14:54 | 41.78154 | 44.81111 | 4941 ft | 220 kts | 136° |
| 2026-04-21 14:55 | 41.77043 | 44.82481 | 4476 ft | 220 kts | 137° |
| 2026-04-21 14:55 | 41.75912 | 44.83885 | 3798 ft | 220 kts | 137° |
| 2026-04-21 14:55 | 41.74836 | 44.85228 | 3435 ft | 203 kts | 137° |
| 2026-04-21 14:55 | 41.73829 | 44.86461 | 3178 ft | 186 kts | 137° |
| 2026-04-21 14:56 | 41.72911 | 44.87592 | 2943 ft | 175 kts | 138° |
| 2026-04-21 14:56 | 41.72060 | 44.88658 | 2740 ft | 158 kts | 137° |
| 2026-04-21 14:56 | 41.71311 | 44.89597 | 2567 ft | 139 kts | 135° |
| 2026-04-21 14:56 | 41.70634 | 44.90498 | 2408 ft | 136 kts | 138° |
| 2026-04-21 14:57 | 41.69945 | 44.91349 | 2177 ft | 132 kts | 138° |
| 2026-04-21 14:57 | 41.69293 | 44.92168 | 2055 ft | 130 kts | 140° |
| 2026-04-21 14:57 | 41.68599 | 44.93010 | 1849 ft | 136 kts | 139° |
| 2026-04-21 14:57 | 41.67909 | 44.93877 | 1616 ft | 135 kts | 139° |
| 2026-04-21 14:58 | 41.67254 | 44.94686 | 1528 ft | 118 kts | 136° |
| 2026-04-21 14:58 | 41.66777 | 44.95285 | 1530 ft | 69 kts | 137° |
| 2026-04-21 14:58 | 41.66492 | 44.95641 | 1526 ft | 52 kts | 137° |
| 2026-04-21 14:58 | 41.66225 | 44.95977 | 1529 ft | 52 kts | 136° |
| 2026-04-21 14:59 | 41.65974 | 44.96290 | 1522 ft | 40 kts | 137° |
| 2026-04-21 14:59 | 41.65851 | 44.96458 | 1526 ft | 18 kts | 112° |
| 2026-04-21 14:59 | 41.65888 | 44.96598 | 1532 ft | 17 kts | 25° |
| 2026-04-21 14:59 | 41.65993 | 44.96529 | 1523 ft | 23 kts | 316° |
| 2026-04-21 15:00 | 41.66123 | 44.96361 | 1528 ft | 26 kts | 320° |
| 2026-04-21 15:00 | 41.66295 | 44.96302 | 1525 ft | 26 kts | 11° |
| 2026-04-21 15:00 | 41.66474 | 44.96360 | 1529 ft | 27 kts | 13° |
| 2026-04-21 15:00 | 41.66621 | 44.96408 | 1526 ft | 21 kts | 13° |
| 2026-04-21 15:01 | 41.66699 | 44.96429 | 1527 ft | 6 kts | 358° |
| 2026-04-21 15:01 | 41.66729 | 44.96413 | 1532 ft | 5 kts | 326° |